Bottle Creek, Nevada
Current Conditions -  °F | °C
As of 3:56 AM on Tuesday 27 Jan 2015 (Local Time) from KWMC Reporting Station
Few Clouds Few Clouds  
Wind Chill: 32°   Ceiling: Unl
Heat Index: 32°   Visibility: 10mi
Dew Point: 28°   Wind: 0mph
Humidity: 85%   Direction: NA
Pressure: 30.06"   Gusts: NA
Location:  41.1353°N, 118.186°W
Report Text: KWMC 271156Z AUTO 00000KT 10SM FEW110 00/M02 A3006 RMK AO2 SLP170 T00001022 10039 21022 55000
Loading
Personal Weather Stations






























Interactive Weather Map New forecast layout! Learn more

10-Day Weather Forecast

Advertisements
Track Severe Weather on mobile